Thendara, NY

4:00 AM EST on December 29, 2014 (GMT -0500)
Thirsty Pond | Change Station
CLOSE
Current Station
Personal Weather Station
Location: Eagle Bay, NY
Elevation: 2126 ft
Nearby Weather Stations

Elev 2126 ft 43.82 °N, 74.90 °W | Updated 3 minutes ago

Partly Cloudy
Partly Cloudy
24.1 °F
Feels Like 15 °F
N
9.0
Wind Variable Wind from North
Gusts 9.0 mph

Today
High -- | Low -- °F
--% Chance of Precip.
Yesterday
High -- | Low -- °F
Precip. -- in
7:33 AM 4:30 PM
First Quarter, 57% visible
Pressure 30.12 in
Visibility 10.0 miles
Clouds Overcast 5500 ft
Windchill 15 °F
Dew Point 22 °F
Humidity 90%
Rainfall 0.00 in
Snow Depth Not available.
UV 0 out of 12
Pollen .10 out of 12
Air Quality Not available.
Flu Activity Not available.
METAR KGTB 290858Z AUTO 28007KT 10SM OVC055 M01/M07 A3009 RMK AO2 SLP198 T10151071 52020

More Conditions Fewer Conditions

Pressure 30.12 in
Visibility 10.0 miles
Clouds Overcast 5500 ft
Windchill 15 °F
Dew Point 22 °F
Humidity 90%
Rainfall 0.00 in
Snow Depth Not available.
UV 0 out of 12
Pollen .10 out of 12
Air Quality Not available.
Flu Activity Not available.
METAR KGTB 290858Z AUTO 28007KT 10SM OVC055 M01/M07 A3009 RMK AO2 SLP198 T10151071 52020

More Conditions Fewer Conditions

10-Day Weather Forecast

Almanac

Astronomy

Dec. 29, 2014 Rise Set
Actual Time
Civil Twilight
Nautical Twilight
Astronomical Twilight
Moon
Length of Visible Light
Length of Day
Tomorrow will be .
, % of the Moon is Illuminated

Today's Extremes

State Highs State Lows

Community

WunderPhotos

Upload Photos

1,781,559 photos uploaded!

WunderBlogs® & News

Nearby

Air Quality

  Air Quality AQ Index Pollutant
Not available.

Snow Depth

Station Depth Elevation

Earthquake Activity

City Distance Mag. Time & Date
Minimum magnitude displayed is 2.5.

Coastal Water Temperatures

Place Temperature

Nearby Weather Stations